createdAt,value
2018-10-03T00:01:01.909Z,28.40
2018-10-03T00:02:33.494Z,29.00
2018-10-03T00:04:05.158Z,28.90
2018-10-03T00:05:36.634Z,28.70
2018-10-03T00:07:08.209Z,31.20
2018-10-03T00:08:39.783Z,31.90
2018-10-03T00:10:11.459Z,31.40
2018-10-03T00:11:42.934Z,33.00
2018-10-03T00:13:14.510Z,30.90
2018-10-03T00:14:46.085Z,31.80
2018-10-03T00:16:17.660Z,31.90
2018-10-03T00:17:49.234Z,33.40
2018-10-03T00:19:20.814Z,32.60
2018-10-03T00:20:52.390Z,31.50
2018-10-03T00:22:24.061Z,32.60
2018-10-03T00:23:55.535Z,31.80
2018-10-03T00:25:27.112Z,31.20
2018-10-03T00:26:58.684Z,30.60
2018-10-03T00:28:30.363Z,32.80
2018-10-03T00:30:01.835Z,30.50
2018-10-03T00:31:33.411Z,30.90
2018-10-03T00:33:04.986Z,32.30
2018-10-03T00:34:36.561Z,36.30
2018-10-03T00:36:08.137Z,35.70
2018-10-03T00:37:39.715Z,35.70
2018-10-03T00:39:11.284Z,37.40
2018-10-03T00:40:42.860Z,37.70
2018-10-03T00:42:14.441Z,38.20
2018-10-03T00:43:46.010Z,40.60
2018-10-03T00:45:17.583Z,37.30
2018-10-03T00:46:49.258Z,34.60
2018-10-03T00:48:20.735Z,37.40
2018-10-03T00:49:52.310Z,37.90
2018-10-03T00:51:23.885Z,36.10
2018-10-03T00:52:55.459Z,36.20
2018-10-03T00:54:27.033Z,36.40
2018-10-03T00:55:58.609Z,37.00
2018-10-03T00:57:30.185Z,35.80
2018-10-03T00:59:01.760Z,36.70
2018-10-03T01:00:33.335Z,38.30
2018-10-03T01:02:05.214Z,38.30
2018-10-03T01:03:36.487Z,36.70
2018-10-03T01:05:08.268Z,37.00
2018-10-03T01:06:39.641Z,41.30
2018-10-03T01:08:11.212Z,41.30
2018-10-03T01:09:42.787Z,41.00
2018-10-03T01:11:14.544Z,44.80
2018-10-03T01:12:45.940Z,41.80
2018-10-03T01:14:17.523Z,40.60
2018-10-03T01:15:49.169Z,42.20
2018-10-03T01:17:20.662Z,43.60
2018-10-03T01:18:52.247Z,43.20
2018-10-03T01:20:23.815Z,42.70
2018-10-03T01:21:55.392Z,37.00
2018-10-03T01:23:27.713Z,39.80
2018-10-03T01:24:58.538Z,40.70
2018-10-03T01:26:30.116Z,37.80
2018-10-03T01:28:01.689Z,43.90
2018-10-03T01:29:33.314Z,47.90
2018-10-03T01:31:04.904Z,45.00
2018-10-03T01:32:36.414Z,43.00
2018-10-03T01:34:07.992Z,42.50
2018-10-03T01:35:39.569Z,40.60
2018-10-03T01:37:11.144Z,40.30
2018-10-03T01:38:45.665Z,42.00
2018-10-03T01:40:14.293Z,41.60
2018-10-03T01:41:45.994Z,42.10
2018-10-03T01:43:17.464Z,42.60
2018-10-03T01:44:49.066Z,42.00
2018-10-03T01:46:20.598Z,45.10
2018-10-03T01:47:52.168Z,41.20
2018-10-03T01:49:23.742Z,43.60
2018-10-03T01:50:55.318Z,43.00
2018-10-03T01:52:26.912Z,44.30
2018-10-03T01:53:58.513Z,43.80
2018-10-03T01:55:30.043Z,44.30
2018-10-03T01:57:01.618Z,46.70
2018-10-03T01:58:34.440Z,43.60
2018-10-03T02:00:04.889Z,42.50
2018-10-03T02:01:36.343Z,43.80
2018-10-03T02:03:07.919Z,42.10
2018-10-03T02:04:39.498Z,41.70
2018-10-03T02:06:11.168Z,42.90
2018-10-03T02:07:42.702Z,44.20
2018-10-03T02:09:14.221Z,43.00
2018-10-03T02:10:45.794Z,43.60
2018-10-03T02:12:17.389Z,45.40
2018-10-03T02:13:48.963Z,46.70
2018-10-03T02:15:20.542Z,46.10
2018-10-03T02:16:52.092Z,49.70
2018-10-03T02:18:23.767Z,48.30
2018-10-03T02:19:55.242Z,49.00
2018-10-03T02:21:26.817Z,47.00
2018-10-03T02:22:58.394Z,44.30
2018-10-03T02:24:29.969Z,44.20
2018-10-03T02:26:01.542Z,44.80
2018-10-03T02:27:33.117Z,43.70
2018-10-03T02:29:04.694Z,44.50
2018-10-03T02:30:36.268Z,43.20
2018-10-03T02:32:07.843Z,41.40
2018-10-03T02:33:39.417Z,42.30
2018-10-03T02:35:10.992Z,42.40
2018-10-03T02:36:42.768Z,45.10
2018-10-03T02:38:14.144Z,41.10
2018-10-03T02:39:45.717Z,42.30
2018-10-03T02:41:17.293Z,43.80
2018-10-03T02:42:48.868Z,46.20
2018-10-03T02:44:20.444Z,48.20
2018-10-03T02:45:52.018Z,46.70
2018-10-03T02:47:23.604Z,43.30
2018-10-03T02:48:55.168Z,40.60
2018-10-03T02:50:26.745Z,40.50
2018-10-03T02:51:58.327Z,42.30
2018-10-03T02:53:29.892Z,40.90
2018-10-03T02:55:01.569Z,39.60
2018-10-03T02:56:33.043Z,37.70
2018-10-03T02:58:04.654Z,36.00
2018-10-03T02:59:36.192Z,36.70
2018-10-03T03:01:07.769Z,37.40
2018-10-03T03:02:39.343Z,36.60
2018-10-03T03:04:10.915Z,33.50
2018-10-03T03:05:42.552Z,35.60
2018-10-03T03:07:14.166Z,36.90
2018-10-03T03:08:45.676Z,35.70
2018-10-03T03:10:17.231Z,36.10
2018-10-03T03:11:48.815Z,36.60
2018-10-03T03:13:20.468Z,37.70
2018-10-03T03:14:51.940Z,37.70
2018-10-03T03:16:23.516Z,40.70
2018-10-03T03:17:55.095Z,41.00
2018-10-03T03:19:26.672Z,38.40
2018-10-03T03:20:58.241Z,38.50
2018-10-03T03:22:29.815Z,36.50
2018-10-03T03:24:01.390Z,38.30
2018-10-03T03:25:32.965Z,38.10
2018-10-03T03:27:04.542Z,42.70
2018-10-03T03:28:36.117Z,40.60
2018-10-03T03:30:07.695Z,45.00
2018-10-03T03:31:39.367Z,42.70
2018-10-03T03:33:10.839Z,43.10
2018-10-03T03:34:42.416Z,46.80
2018-10-03T03:36:13.990Z,48.30
2018-10-03T03:37:45.664Z,48.00
2018-10-03T03:39:17.139Z,40.90
2018-10-03T03:40:48.713Z,43.00
2018-10-03T03:42:20.289Z,41.10
2018-10-03T03:43:51.863Z,39.70
2018-10-03T03:45:23.438Z,40.70
2018-10-03T03:46:55.013Z,39.90
2018-10-03T03:48:26.595Z,39.70
2018-10-03T03:49:58.262Z,39.40
2018-10-03T03:51:29.738Z,39.90
2018-10-03T03:53:01.312Z,42.70
2018-10-03T03:54:32.886Z,47.60
2018-10-03T03:56:04.460Z,44.70
2018-10-03T03:57:36.035Z,49.30
2018-10-03T03:59:07.610Z,46.00
2018-10-03T04:00:39.184Z,45.10
2018-10-03T04:02:10.759Z,46.50
2018-10-03T04:03:42.333Z,44.40
2018-10-03T04:05:13.909Z,44.00
2018-10-03T04:06:45.483Z,39.90
2018-10-03T04:08:17.156Z,42.40
2018-10-03T04:09:48.630Z,42.30
2018-10-03T04:11:20.206Z,42.50
2018-10-03T04:12:51.779Z,38.50
2018-10-03T04:14:23.353Z,39.30
2018-10-03T04:15:54.929Z,40.50
2018-10-03T04:17:26.502Z,44.40
2018-10-03T04:18:58.076Z,40.30
2018-10-03T04:20:29.952Z,41.60
2018-10-03T04:22:01.224Z,39.80
2018-10-03T04:23:32.798Z,40.70
2018-10-03T04:25:04.373Z,43.10
2018-10-03T04:26:36.149Z,41.40
2018-10-03T04:28:07.523Z,41.60
2018-10-03T04:29:39.094Z,45.70
2018-10-03T04:31:10.668Z,44.10
2018-10-03T04:32:42.257Z,46.10
2018-10-03T04:34:13.816Z,46.40
2018-10-03T04:35:45.487Z,47.10
2018-10-03T04:37:16.963Z,47.10
2018-10-03T04:38:48.638Z,48.10
2018-10-03T04:40:20.111Z,47.90
2018-10-03T04:41:51.685Z,48.30
2018-10-03T04:43:23.258Z,50.80
2018-10-03T04:44:54.935Z,52.80
2018-10-03T04:46:26.405Z,54.30
2018-10-03T04:47:57.981Z,48.90
2018-10-03T04:49:29.554Z,51.60
2018-10-03T04:51:01.128Z,52.60
2018-10-03T04:52:32.701Z,50.50
2018-10-03T04:54:04.273Z,49.10
2018-10-03T04:55:35.847Z,52.10
2018-10-03T04:57:07.422Z,50.90
2018-10-03T04:58:38.995Z,52.40
2018-10-03T05:00:10.568Z,52.20
2018-10-03T05:03:13.826Z,50.20
2018-10-03T05:04:45.289Z,49.90
2018-10-03T05:06:16.870Z,39.80
2018-10-03T05:07:48.437Z,43.20
2018-10-03T05:09:20.112Z,47.60
2018-10-03T05:10:51.585Z,40.80
2018-10-03T05:12:23.159Z,47.60
2018-10-03T05:13:54.732Z,46.40
2018-10-03T05:15:26.308Z,47.20
2018-10-03T05:16:57.881Z,45.40
2018-10-03T05:18:29.455Z,45.80
2018-10-03T05:20:01.028Z,45.60
2018-10-03T05:21:33.001Z,44.70
2018-10-03T05:23:04.175Z,36.40
2018-10-03T05:24:35.750Z,40.00
2018-10-03T05:26:07.348Z,41.10
2018-10-03T05:27:38.903Z,42.00
2018-10-03T05:29:10.473Z,38.50
2018-10-03T05:30:42.044Z,40.10
2018-10-03T05:32:13.618Z,38.80
2018-10-03T05:33:45.192Z,38.00
2018-10-03T05:35:16.766Z,39.20
2018-10-03T05:36:48.339Z,38.30
2018-10-03T05:38:19.919Z,37.20
2018-10-03T05:39:51.688Z,35.10
2018-10-03T05:41:23.062Z,35.00
2018-10-03T05:42:54.636Z,38.10
2018-10-03T05:44:26.209Z,36.60
2018-10-03T05:45:57.787Z,33.00
2018-10-03T05:47:29.359Z,34.70
2018-10-03T05:49:00.931Z,37.50
2018-10-03T05:50:32.506Z,32.50
2018-10-03T05:52:04.380Z,33.40
2018-10-03T05:53:35.656Z,34.70
2018-10-03T05:55:07.229Z,35.30
2018-10-03T05:56:38.803Z,33.80
2018-10-03T05:58:10.477Z,33.60
2018-10-03T05:59:41.952Z,34.90
2018-10-03T06:01:13.527Z,37.90
2018-10-03T06:02:45.146Z,36.10
2018-10-03T06:04:16.675Z,37.20
2018-10-03T06:05:48.248Z,38.90
2018-10-03T06:07:19.822Z,41.20
2018-10-03T06:08:51.396Z,38.00
2018-10-03T06:10:22.972Z,34.00
2018-10-03T06:11:54.545Z,34.60
2018-10-03T06:13:26.119Z,33.30
2018-10-03T06:14:57.692Z,31.60
2018-10-03T06:16:29.367Z,33.20
2018-10-03T06:18:00.846Z,33.00
2018-10-03T06:19:32.415Z,35.70
2018-10-03T06:21:03.990Z,33.50
2018-10-03T06:22:35.862Z,32.80
2018-10-03T06:24:07.137Z,34.00
2018-10-03T06:25:38.710Z,32.70
2018-10-03T06:27:10.287Z,35.10
2018-10-03T06:28:41.857Z,34.70
2018-10-03T06:30:32.797Z,38.00
2018-10-03T06:31:45.018Z,40.20
2018-10-03T06:33:16.597Z,38.00
2018-10-03T06:34:48.365Z,40.70
2018-10-03T06:36:19.738Z,40.70
2018-10-03T06:37:51.311Z,42.70
2018-10-03T06:39:22.950Z,42.70
2018-10-03T06:40:54.559Z,44.40
2018-10-03T06:42:26.034Z,45.00
2018-10-03T06:43:57.607Z,44.10
2018-10-03T06:45:29.185Z,44.20
2018-10-03T06:47:00.754Z,46.00
2018-10-03T06:48:32.327Z,46.60
2018-10-03T06:50:03.901Z,43.80
2018-10-03T06:51:35.475Z,44.50
2018-10-03T06:53:08.151Z,45.20
2018-10-03T06:54:38.624Z,41.70
2018-10-03T06:56:10.197Z,43.80
2018-10-03T06:57:41.774Z,40.60
2018-10-03T06:59:13.347Z,47.40
2018-10-03T07:00:44.921Z,46.20
2018-10-03T07:02:16.492Z,46.00
2018-10-03T07:03:48.066Z,41.90
2018-10-03T07:05:19.640Z,42.10
2018-10-03T07:06:51.214Z,42.60
2018-10-03T07:08:22.788Z,36.20
2018-10-03T07:09:54.362Z,38.20
2018-10-03T07:11:26.136Z,39.70
2018-10-03T07:12:57.522Z,36.30
2018-10-03T07:14:29.084Z,37.50
2018-10-03T07:16:00.658Z,37.50
2018-10-03T07:17:32.232Z,36.00
2018-10-03T07:19:03.805Z,34.80
2018-10-03T07:20:35.371Z,35.40
2018-10-03T07:22:06.944Z,34.90
2018-10-03T07:23:38.818Z,33.70
2018-10-03T07:25:10.093Z,34.00
2018-10-03T07:26:41.668Z,33.60
2018-10-03T07:28:13.241Z,35.30
2018-10-03T07:29:44.917Z,34.40
2018-10-03T07:31:16.394Z,34.50
2018-10-03T07:32:47.967Z,36.40
2018-10-03T07:34:19.536Z,36.30
2018-10-03T07:35:51.110Z,37.30
2018-10-03T07:37:22.684Z,37.70
2018-10-03T07:38:54.258Z,38.20
2018-10-03T07:40:25.834Z,38.70
2018-10-03T07:41:57.506Z,41.80
2018-10-03T07:43:28.982Z,40.20
2018-10-03T07:45:00.553Z,41.90
2018-10-03T07:46:32.127Z,40.50
2018-10-03T07:48:03.853Z,44.10
2018-10-03T07:49:35.276Z,43.50
2018-10-03T07:51:06.848Z,43.50
2018-10-03T07:52:38.423Z,43.60
2018-10-03T07:54:09.997Z,45.10
2018-10-03T07:55:41.570Z,44.10
2018-10-03T07:57:13.145Z,44.80
2018-10-03T07:58:44.717Z,40.00
2018-10-03T08:00:16.391Z,43.00
2018-10-03T08:01:47.866Z,45.00
2018-10-03T08:03:19.440Z,44.40
2018-10-03T08:04:51.013Z,44.30
2018-10-03T08:06:23.137Z,43.10
2018-10-03T08:07:54.164Z,45.00
2018-10-03T08:09:25.733Z,45.10
2018-10-03T08:10:57.308Z,47.00
2018-10-03T08:12:28.881Z,46.00
2018-10-03T08:14:00.454Z,48.20
2018-10-03T08:15:32.030Z,48.10
2018-10-03T08:17:03.603Z,48.30
2018-10-03T08:18:35.175Z,48.50
2018-10-03T08:20:06.749Z,47.90
2018-10-03T08:21:38.327Z,48.70
2018-10-03T08:23:09.896Z,49.30
2018-10-03T08:24:41.890Z,47.50
2018-10-03T08:26:13.044Z,51.20
2018-10-03T08:27:44.618Z,49.00
2018-10-03T08:29:16.192Z,47.30
2018-10-03T08:30:47.767Z,50.20
2018-10-03T08:32:19.362Z,49.30
2018-10-03T08:33:50.916Z,49.10
2018-10-03T08:35:22.487Z,50.10
2018-10-03T08:36:54.162Z,51.50
2018-10-03T08:38:25.639Z,50.20
2018-10-03T08:41:28.783Z,53.30
2018-10-03T08:43:00.559Z,50.30
2018-10-03T08:44:31.930Z,53.30
2018-10-03T08:46:03.626Z,47.80
2018-10-03T08:49:06.655Z,45.60
2018-10-03T08:50:38.271Z,51.60
2018-10-03T08:52:09.881Z,52.20
2018-10-03T08:53:41.410Z,60.40
2018-10-03T08:55:12.969Z,59.00
2018-10-03T08:56:44.541Z,57.70
2018-10-03T08:58:16.621Z,56.70
2018-10-03T08:59:47.748Z,52.00
2018-10-03T09:01:19.445Z,54.20
2018-10-03T09:02:50.920Z,52.20
2018-10-03T09:04:22.471Z,50.90
2018-10-03T09:05:53.975Z,49.70
2018-10-03T09:07:25.645Z,47.20
2018-10-03T09:08:57.154Z,46.70
2018-10-03T09:10:28.706Z,45.20
2018-10-03T09:12:00.291Z,44.70
2018-10-03T09:13:32.148Z,41.00
2018-10-03T09:15:03.454Z,40.00
2018-10-03T09:16:35.509Z,38.70
2018-10-03T09:18:06.620Z,37.00
2018-10-03T09:19:38.266Z,36.30
2018-10-03T09:21:09.760Z,35.20
2018-10-03T09:22:41.385Z,33.50
2018-10-03T09:24:13.303Z,33.00
2018-10-03T09:25:44.541Z,32.90
2018-10-03T09:27:16.064Z,31.20
2018-10-03T09:28:47.741Z,31.00
2018-10-03T09:33:22.330Z,29.10
2018-10-03T09:34:53.909Z,28.90
2018-10-03T09:36:25.484Z,28.40
2018-10-03T09:41:00.320Z,29.60
2018-10-03T09:42:32.006Z,29.50
2018-10-03T09:44:03.386Z,29.60
2018-10-03T09:45:34.966Z,29.70
2018-10-03T09:47:06.741Z,29.40
2018-10-03T09:48:38.116Z,30.70
2018-10-03T09:50:09.695Z,31.10
2018-10-03T09:51:41.574Z,31.50
2018-10-03T09:53:13.276Z,33.80
2018-10-03T09:54:44.836Z,39.90
2018-10-03T09:56:16.004Z,41.50
2018-10-03T09:57:47.570Z,46.50
2018-10-03T09:59:19.297Z,48.50
2018-10-03T10:00:50.941Z,50.30
2018-10-03T10:02:22.302Z,57.10
2018-10-03T10:03:54.136Z,61.10
2018-10-03T10:06:57.063Z,60.90
2018-10-03T10:10:00.914Z,63.10
2018-10-03T10:13:03.343Z,64.10
2018-10-03T10:14:34.920Z,59.20
2018-10-03T10:16:06.913Z,60.90
2018-10-03T10:19:09.861Z,58.80
2018-10-03T10:20:41.254Z,59.10
2018-10-03T10:23:44.816Z,51.70
2018-10-03T10:25:15.973Z,50.50
2018-10-03T10:28:19.125Z,48.30
2018-10-03T10:29:50.710Z,46.80
2018-10-03T10:31:22.655Z,44.20
2018-10-03T10:34:25.428Z,43.30
2018-10-03T10:35:57.005Z,44.00
2018-10-03T10:37:28.987Z,44.60
2018-10-03T10:39:00.465Z,44.50
2018-10-03T10:40:33.172Z,39.00
2018-10-03T10:42:03.669Z,38.50
2018-10-03T10:43:35.286Z,35.70
2018-10-03T10:45:06.948Z,33.50
2018-10-03T10:48:09.728Z,29.40
2018-10-03T10:49:41.796Z,28.10
2018-10-03T10:51:12.836Z,26.40
2018-10-03T10:52:44.830Z,26.00
2018-10-03T10:54:16.143Z,23.40
2018-10-03T10:55:47.717Z,23.30
2018-10-03T10:57:19.628Z,22.20
2018-10-03T10:58:51.711Z,22.70
2018-10-03T11:00:22.794Z,21.40
2018-10-03T11:01:54.185Z,20.70
2018-10-03T11:03:26.355Z,19.80
2018-10-03T11:04:57.982Z,19.70
2018-10-03T11:06:29.313Z,19.50
2018-10-03T11:08:00.867Z,18.40
2018-10-03T11:09:32.539Z,18.30
2018-10-03T11:11:03.580Z,17.80
2018-10-03T11:12:35.588Z,18.60
2018-10-03T11:14:06.618Z,17.20
2018-10-03T11:15:38.704Z,15.70
2018-10-03T11:17:10.210Z,15.90
2018-10-03T11:18:41.618Z,17.40
2018-10-03T11:21:44.636Z,17.00
2018-10-03T11:23:16.030Z,18.40
2018-10-03T11:24:47.947Z,17.90
2018-10-03T11:26:19.377Z,18.60
2018-10-03T11:27:51.573Z,18.90
2018-10-03T11:29:22.346Z,17.00
2018-10-03T11:30:54.646Z,16.90
2018-10-03T11:32:25.710Z,17.80
2018-10-03T11:37:00.377Z,17.50
2018-10-03T11:41:35.201Z,17.10
2018-10-03T11:44:38.214Z,16.30
2018-10-03T11:46:10.699Z,17.40
2018-10-03T11:47:41.312Z,18.20
2018-10-03T11:49:13.024Z,16.80
2018-10-03T11:50:45.142Z,16.00
2018-10-03T11:52:16.558Z,15.30
2018-10-03T11:53:47.636Z,15.60
2018-10-03T11:55:19.252Z,18.00
2018-10-03T11:56:50.898Z,17.40
2018-10-03T11:58:22.374Z,16.50
2018-10-03T11:59:54.158Z,18.10
2018-10-03T12:01:25.754Z,17.10
2018-10-03T12:02:57.620Z,15.80
2018-10-03T12:04:28.702Z,15.30
2018-10-03T12:06:00.292Z,15.10
2018-10-03T12:07:32.793Z,16.40
2018-10-03T12:09:03.485Z,14.50
2018-10-03T12:10:35.033Z,14.80
2018-10-03T12:13:38.777Z,14.30
2018-10-03T12:15:09.895Z,13.40
2018-10-03T12:16:42.294Z,12.90
2018-10-03T12:21:16.423Z,12.40
2018-10-03T12:22:47.707Z,13.40
2018-10-03T12:24:19.291Z,13.90
2018-10-03T12:25:50.875Z,14.10
2018-10-03T12:30:26.658Z,12.40
2018-10-03T12:31:57.236Z,13.10
2018-10-03T12:33:29.443Z,12.30
2018-10-03T12:35:00.400Z,12.40
2018-10-03T12:36:32.494Z,13.60
2018-10-03T12:38:03.762Z,13.10
2018-10-03T12:41:06.929Z,13.20
2018-10-03T12:42:38.313Z,12.50
2018-10-03T12:44:09.900Z,13.30
2018-10-03T12:48:45.064Z,13.70
2018-10-03T12:51:47.829Z,10.30
2018-10-03T12:53:19.417Z,12.90
2018-10-03T12:54:51.092Z,12.10
2018-10-03T12:56:22.592Z,11.90
2018-10-03T12:57:54.790Z,12.30
2018-10-03T13:00:57.350Z,12.00
2018-10-03T13:02:29.146Z,12.10
2018-10-03T13:04:00.727Z,11.50
2018-10-03T13:05:32.420Z,10.60
2018-10-03T13:07:03.800Z,10.30
2018-10-03T13:08:35.288Z,10.00
2018-10-03T13:10:06.874Z,9.10
2018-10-03T13:13:10.050Z,8.90
2018-10-03T13:14:41.844Z,8.90
2018-10-03T13:16:13.275Z,9.30
2018-10-03T13:19:16.580Z,9.30
2018-10-03T13:22:19.639Z,8.80
2018-10-03T13:23:51.236Z,8.70
2018-10-03T13:25:22.885Z,8.90
2018-10-03T13:26:54.681Z,9.00
2018-10-03T13:28:26.058Z,9.70
2018-10-03T13:29:57.627Z,8.30
2018-10-03T13:31:29.126Z,8.30
2018-10-03T13:34:34.026Z,9.20
2018-10-03T13:36:04.123Z,8.50
2018-10-03T13:37:36.025Z,7.90
2018-10-03T13:39:07.048Z,7.90
2018-10-03T13:40:39.266Z,8.40
2018-10-03T13:43:42.100Z,7.10
2018-10-03T13:45:13.708Z,8.00
2018-10-03T13:46:45.563Z,6.30
2018-10-03T13:48:17.204Z,7.50
2018-10-03T13:49:48.725Z,7.10
2018-10-03T13:51:19.886Z,7.10
2018-10-03T13:52:51.865Z,6.70
2018-10-03T13:54:23.099Z,5.80
2018-10-03T13:55:54.951Z,6.40
2018-10-03T13:57:26.444Z,6.10
2018-10-03T13:58:57.725Z,6.00
2018-10-03T14:00:29.373Z,6.20
2018-10-03T14:02:01.348Z,6.40
2018-10-03T14:05:04.411Z,6.50
2018-10-03T14:06:36.080Z,6.20
2018-10-03T14:08:07.622Z,6.30
2018-10-03T14:09:39.182Z,6.60
2018-10-03T14:11:10.893Z,6.70
2018-10-03T14:14:13.811Z,6.70
2018-10-03T14:15:45.228Z,7.10
2018-10-03T14:17:17.799Z,6.60
2018-10-03T14:20:21.080Z,6.80
2018-10-03T14:21:52.017Z,7.10
2018-10-03T14:23:23.470Z,6.30
2018-10-03T14:24:55.032Z,6.00
2018-10-03T14:26:26.801Z,7.30
2018-10-03T14:27:58.497Z,6.70
2018-10-03T14:29:30.287Z,7.50
2018-10-03T14:31:01.135Z,7.80
2018-10-03T14:34:04.316Z,7.70
2018-10-03T14:35:35.991Z,7.30
2018-10-03T14:37:07.877Z,7.40
2018-10-03T14:38:39.062Z,7.50
2018-10-03T14:40:11.008Z,7.20
2018-10-03T14:41:42.220Z,7.40
2018-10-03T14:43:14.244Z,7.10
2018-10-03T14:44:45.482Z,7.50
2018-10-03T14:46:17.245Z,7.80
2018-10-03T14:47:48.888Z,7.00
2018-10-03T14:49:20.342Z,7.00
2018-10-03T14:50:51.934Z,6.70
2018-10-03T14:53:54.947Z,7.70
2018-10-03T14:56:58.432Z,7.70
2018-10-03T14:58:29.797Z,7.30
2018-10-03T15:00:01.627Z,6.80
2018-10-03T15:01:32.958Z,7.10
2018-10-03T15:03:05.019Z,6.30
2018-10-03T15:04:36.346Z,6.30
2018-10-03T15:07:39.623Z,7.00
2018-10-03T15:09:10.811Z,7.10
2018-10-03T15:10:43.195Z,6.60
2018-10-03T15:12:14.355Z,6.20
2018-10-03T15:15:17.355Z,6.80
2018-10-03T15:16:49.094Z,6.70
2018-10-03T15:18:20.825Z,7.10
2018-10-03T15:19:52.861Z,7.40
2018-10-03T15:21:24.795Z,6.20
2018-10-03T15:22:55.296Z,7.00
2018-10-03T15:24:26.774Z,6.90
2018-10-03T15:25:58.315Z,7.10
2018-10-03T15:27:30.512Z,7.30
2018-10-03T15:30:33.081Z,7.00
2018-10-03T15:32:04.670Z,6.70
2018-10-03T15:33:36.408Z,7.30
2018-10-03T15:36:39.633Z,7.30
2018-10-03T15:38:11.742Z,5.90
2018-10-03T15:39:42.606Z,7.10
2018-10-03T15:42:45.984Z,7.20
2018-10-03T15:44:17.371Z,7.30
2018-10-03T15:45:48.996Z,5.90
2018-10-03T15:47:20.540Z,6.40
2018-10-03T15:48:52.332Z,6.50
2018-10-03T15:50:23.920Z,6.80
2018-10-03T15:51:56.332Z,6.10
2018-10-03T15:53:26.904Z,6.70
2018-10-03T15:54:58.690Z,6.10
2018-10-03T15:56:30.074Z,6.70
2018-10-03T15:58:01.789Z,6.10
2018-10-03T15:59:33.250Z,6.40
2018-10-03T16:01:04.839Z,7.80
2018-10-03T16:02:38.511Z,7.20
2018-10-03T16:04:08.094Z,7.20
2018-10-03T16:05:39.819Z,7.00
2018-10-03T16:07:11.504Z,7.00
2018-10-03T16:08:42.793Z,7.00
2018-10-03T16:10:14.925Z,6.60
2018-10-03T16:11:45.977Z,7.30
2018-10-03T16:14:49.461Z,6.00
2018-10-03T16:16:21.256Z,6.10
2018-10-03T16:19:24.783Z,7.10
2018-10-03T16:20:55.636Z,6.60
2018-10-03T16:22:27.439Z,6.60
2018-10-03T16:23:58.902Z,7.00
2018-10-03T16:27:01.940Z,6.90
2018-10-03T16:28:34.023Z,6.40
2018-10-03T16:31:36.700Z,6.30
2018-10-03T16:33:08.912Z,6.20
2018-10-03T16:34:39.829Z,6.80
2018-10-03T16:36:11.768Z,7.20
2018-10-03T16:37:43.084Z,7.00
2018-10-03T16:39:14.826Z,6.70
2018-10-03T16:40:46.701Z,7.30
2018-10-03T16:43:49.651Z,7.10
2018-10-03T16:46:52.832Z,6.60
2018-10-03T16:48:24.711Z,6.70
2018-10-03T16:49:56.353Z,7.40
2018-10-03T16:51:27.734Z,7.70
2018-10-03T16:52:58.925Z,7.00
2018-10-03T16:54:31.689Z,7.00
2018-10-03T16:56:02.282Z,7.10
2018-10-03T16:57:33.841Z,7.00
2018-10-03T16:59:06.439Z,6.40
2018-10-03T17:00:37.346Z,6.40
2018-10-03T17:02:08.386Z,6.50
2018-10-03T17:03:40.329Z,6.40
2018-10-03T17:05:11.656Z,6.90
2018-10-03T17:06:43.141Z,6.90
2018-10-03T17:08:15.088Z,6.90
2018-10-03T17:09:46.326Z,6.20
2018-10-03T17:12:49.702Z,7.90
2018-10-03T17:14:21.064Z,7.30
2018-10-03T17:15:52.649Z,7.30
2018-10-03T17:17:24.242Z,7.90
2018-10-03T17:23:30.924Z,6.70
2018-10-03T17:26:34.275Z,7.30
2018-10-03T17:28:05.607Z,7.90
2018-10-03T17:29:36.908Z,7.50
2018-10-03T17:31:08.575Z,7.70
2018-10-03T17:32:40.280Z,8.50
2018-10-03T17:34:11.702Z,7.90
2018-10-03T17:35:43.821Z,7.60
2018-10-03T17:37:15.244Z,8.80
2018-10-03T17:38:46.814Z,8.50
2018-10-03T17:40:18.131Z,8.30
2018-10-03T17:41:50.052Z,8.30
2018-10-03T17:43:22.268Z,7.70
2018-10-03T17:44:53.762Z,7.50
2018-10-03T17:46:24.886Z,7.40
2018-10-03T17:47:57.010Z,8.00
2018-10-03T17:49:28.182Z,7.10
2018-10-03T17:52:30.849Z,7.30
2018-10-03T17:54:03.151Z,6.90
2018-10-03T17:55:34.029Z,7.50
2018-10-03T17:57:05.627Z,13.50
2018-10-03T17:58:37.017Z,15.40
2018-10-03T18:00:09.363Z,17.20
2018-10-03T18:01:41.103Z,17.30
2018-10-03T18:03:12.432Z,17.70
2018-10-03T18:04:43.464Z,17.60
2018-10-03T18:06:15.446Z,17.00
2018-10-03T18:07:46.605Z,16.40
2018-10-03T18:12:21.459Z,16.70
2018-10-03T18:13:53.419Z,16.40
2018-10-03T18:15:24.450Z,16.90
2018-10-03T18:16:56.227Z,17.20
2018-10-03T18:18:27.679Z,18.30
2018-10-03T18:19:59.407Z,18.50
2018-10-03T18:23:02.330Z,18.20
2018-10-03T18:24:34.521Z,18.40
2018-10-03T18:26:05.476Z,18.30
2018-10-03T18:27:37.295Z,18.30
2018-10-03T18:29:08.835Z,17.10
2018-10-03T18:30:40.245Z,18.00
2018-10-03T18:32:11.788Z,17.50
2018-10-03T18:33:43.367Z,17.90
2018-10-03T18:35:14.942Z,18.30
2018-10-03T18:36:46.823Z,19.20
2018-10-03T18:38:18.097Z,16.90
2018-10-03T18:39:49.674Z,15.80
2018-10-03T18:42:53.146Z,13.70
2018-10-03T18:44:24.406Z,13.20
2018-10-03T18:45:56.491Z,12.80
2018-10-03T18:47:27.862Z,13.30
2018-10-03T18:50:30.915Z,12.10
2018-10-03T18:52:02.647Z,11.60
2018-10-03T18:53:34.537Z,9.70
2018-10-03T18:55:05.462Z,9.30
2018-10-03T18:56:37.119Z,8.80
2018-10-03T18:58:08.594Z,8.90
2018-10-03T18:59:40.299Z,8.10
2018-10-03T19:01:11.747Z,6.90
2018-10-03T19:02:43.324Z,7.00
2018-10-03T19:04:14.902Z,6.00
2018-10-03T19:05:46.570Z,5.70
2018-10-03T19:07:18.054Z,6.20
2018-10-03T19:08:49.833Z,5.40
2018-10-03T19:10:21.508Z,5.30
2018-10-03T19:11:52.832Z,4.70
2018-10-03T19:13:24.928Z,4.00
2018-10-03T19:14:56.035Z,4.10
2018-10-03T19:16:27.514Z,3.70
2018-10-03T19:21:02.238Z,3.50
2018-10-03T19:22:33.833Z,3.00
2018-10-03T19:24:05.421Z,2.60
2018-10-03T19:25:37.269Z,2.80
2018-10-03T19:27:08.634Z,3.40
2018-10-03T19:28:40.117Z,3.30
2018-10-03T19:30:12.086Z,3.40
2018-10-03T19:31:43.795Z,3.10
2018-10-03T19:33:14.946Z,3.00
2018-10-03T19:36:18.333Z,3.70
2018-10-03T19:37:49.632Z,3.70
2018-10-03T19:39:21.348Z,3.80
2018-10-03T19:40:52.977Z,3.40
2018-10-03T19:42:24.298Z,3.10
2018-10-03T19:43:56.389Z,3.80
2018-10-03T19:45:27.546Z,4.50
2018-10-03T19:46:59.218Z,5.20
2018-10-03T19:48:30.983Z,4.70
2018-10-03T19:50:02.692Z,5.20
2018-10-03T19:51:33.965Z,4.40
2018-10-03T19:53:05.317Z,5.00
2018-10-03T19:56:08.567Z,4.10
2018-10-03T19:57:40.073Z,3.80
2018-10-03T19:59:11.686Z,4.40
2018-10-03T20:00:43.190Z,4.00
2018-10-03T20:02:14.763Z,3.40
2018-10-03T20:03:46.409Z,3.10
2018-10-03T20:05:17.957Z,2.30
2018-10-03T20:06:49.488Z,2.60
2018-10-03T20:09:52.743Z,2.50
2018-10-03T20:11:24.733Z,2.50
2018-10-03T20:12:55.787Z,2.20
2018-10-03T20:14:27.364Z,2.50
2018-10-03T20:15:58.937Z,2.50
2018-10-03T20:17:30.511Z,2.40
2018-10-03T20:22:05.438Z,1.80
2018-10-03T20:23:36.809Z,1.50
2018-10-03T20:25:08.385Z,1.40
2018-10-03T20:26:40.071Z,1.50
2018-10-03T20:28:11.669Z,1.80
2018-10-03T20:29:43.110Z,1.50
2018-10-03T20:31:15.204Z,1.40
2018-10-03T20:32:46.562Z,1.60
2018-10-03T20:34:17.906Z,1.40
2018-10-03T20:35:49.407Z,1.40
2018-10-03T20:37:20.982Z,1.60
2018-10-03T20:38:52.788Z,1.50
2018-10-03T20:40:24.138Z,1.50
2018-10-03T20:41:55.840Z,1.50
2018-10-03T20:43:27.281Z,1.70
2018-10-03T20:44:58.856Z,1.40
2018-10-03T20:46:30.529Z,1.60
2018-10-03T20:48:02.006Z,1.60
2018-10-03T20:49:33.882Z,2.20
2018-10-03T20:51:05.153Z,1.90
2018-10-03T20:54:08.337Z,1.90
2018-10-03T20:55:39.881Z,1.80
2018-10-03T20:57:13.477Z,1.70
2018-10-03T20:58:43.026Z,1.90
2018-10-03T21:00:14.625Z,1.60
2018-10-03T21:01:46.480Z,1.90
2018-10-03T21:03:17.749Z,2.10
2018-10-03T21:04:49.323Z,2.10
2018-10-03T21:06:20.999Z,2.10
2018-10-03T21:07:52.473Z,2.00
2018-10-03T21:10:55.623Z,2.80
2018-10-03T21:13:58.773Z,2.90
2018-10-03T21:15:30.343Z,2.60
2018-10-03T21:17:01.925Z,2.30
2018-10-03T21:18:33.491Z,2.10
2018-10-03T21:20:05.067Z,2.50
2018-10-03T21:21:36.639Z,2.60
2018-10-03T21:23:08.212Z,2.30
2018-10-03T21:24:39.788Z,2.50
2018-10-03T21:26:11.462Z,2.30
2018-10-03T21:27:42.934Z,2.70
2018-10-03T21:29:14.510Z,3.00
2018-10-03T21:30:46.113Z,3.50
2018-10-03T21:32:17.658Z,3.50
2018-10-03T21:33:49.231Z,3.10
2018-10-03T21:35:20.804Z,3.50
2018-10-03T21:36:52.377Z,3.30
2018-10-03T21:38:23.952Z,2.90
2018-10-03T21:39:55.525Z,2.60
2018-10-03T21:41:27.099Z,2.60
2018-10-03T21:42:58.674Z,2.90
2018-10-03T21:44:30.350Z,3.60
2018-10-03T21:46:01.824Z,4.00